sensor_id;sensor_type;location;lat;lon;timestamp;pressure;altitude;pressure_sealevel;temperature;humidity
56668;BME280;42542;48.360;10.958;2022-12-18T00:01:38;97198.34;;;-5.25;99.90
56668;BME280;42542;48.360;10.958;2022-12-18T00:04:40;97207.84;;;-5.23;100.00
56668;BME280;42542;48.360;10.958;2022-12-18T00:07:41;97219.91;;;-5.19;99.92
56668;BME280;42542;48.360;10.958;2022-12-18T00:10:43;97227.66;;;-5.17;99.89
56668;BME280;42542;48.360;10.958;2022-12-18T00:13:46;97211.13;;;-5.16;99.59
56668;BME280;42542;48.360;10.958;2022-12-18T00:16:47;97212.81;;;-5.14;99.62
56668;BME280;42542;48.360;10.958;2022-12-18T00:19:49;97199.88;;;-5.18;99.71
56668;BME280;42542;48.360;10.958;2022-12-18T00:22:54;97208.34;;;-5.10;99.61
56668;BME280;42542;48.360;10.958;2022-12-18T00:26:00;97219.63;;;-5.09;99.51
56668;BME280;42542;48.360;10.958;2022-12-18T00:29:12;97209.16;;;-5.08;99.64
56668;BME280;42542;48.360;10.958;2022-12-18T00:32:17;97217.78;;;-5.04;99.72
56668;BME280;42542;48.360;10.958;2022-12-18T00:35:19;97228.09;;;-5.01;99.80
56668;BME280;42542;48.360;10.958;2022-12-18T00:38:20;97230.75;;;-5.03;100.00
56668;BME280;42542;48.360;10.958;2022-12-18T00:41:24;97240.16;;;-4.97;99.58
56668;BME280;42542;48.360;10.958;2022-12-18T00:44:45;97240.09;;;-4.96;99.14
56668;BME280;42542;48.360;10.958;2022-12-18T00:47:47;97242.66;;;-4.94;99.15
56668;BME280;42542;48.360;10.958;2022-12-18T00:50:49;97237.38;;;-4.91;99.07
56668;BME280;42542;48.360;10.958;2022-12-18T00:53:51;97247.75;;;-4.90;98.89
56668;BME280;42542;48.360;10.958;2022-12-18T00:56:52;97254.72;;;-4.90;98.74
56668;BME280;42542;48.360;10.958;2022-12-18T00:59:54;97252.94;;;-4.90;98.60
56668;BME280;42542;48.360;10.958;2022-12-18T01:02:56;97256.59;;;-4.95;98.48
56668;BME280;42542;48.360;10.958;2022-12-18T01:05:58;97258.41;;;-4.97;98.17
56668;BME280;42542;48.360;10.958;2022-12-18T01:09:01;97263.63;;;-4.97;98.04
56668;BME280;42542;48.360;10.958;2022-12-18T01:12:03;97254.09;;;-4.98;98.33
56668;BME280;42542;48.360;10.958;2022-12-18T01:15:06;97252.28;;;-4.96;98.41
56668;BME280;42542;48.360;10.958;2022-12-18T01:18:08;97262.69;;;-4.96;98.12
56668;BME280;42542;48.360;10.958;2022-12-18T01:21:12;97270.50;;;-4.95;98.09
56668;BME280;42542;48.360;10.958;2022-12-18T01:24:14;97261.03;;;-4.97;97.27
56668;BME280;42542;48.360;10.958;2022-12-18T01:27:16;97258.47;;;-5.00;97.43
56668;BME280;42542;48.360;10.958;2022-12-18T01:30:17;97262.03;;;-5.03;97.39
56668;BME280;42542;48.360;10.958;2022-12-18T01:33:19;97270.88;;;-5.08;97.13
56668;BME280;42542;48.360;10.958;2022-12-18T01:36:24;97273.47;;;-5.08;97.09
56668;BME280;42542;48.360;10.958;2022-12-18T01:39:26;97282.34;;;-5.16;96.94
56668;BME280;42542;48.360;10.958;2022-12-18T01:42:27;97283.25;;;-5.17;96.75
56668;BME280;42542;48.360;10.958;2022-12-18T01:45:31;97291.22;;;-5.23;96.80
56668;BME280;42542;48.360;10.958;2022-12-18T01:48:33;97294.97;;;-5.33;96.92
56668;BME280;42542;48.360;10.958;2022-12-18T01:51:34;97284.59;;;-5.34;97.36
56668;BME280;42542;48.360;10.958;2022-12-18T01:54:36;97281.22;;;-5.38;97.06
56668;BME280;42542;48.360;10.958;2022-12-18T01:57:39;97278.00;;;-5.47;97.10
56668;BME280;42542;48.360;10.958;2022-12-18T02:00:41;97280.75;;;-5.54;97.35
56668;BME280;42542;48.360;10.958;2022-12-18T02:03:43;97286.06;;;-5.58;97.35
56668;BME280;42542;48.360;10.958;2022-12-18T02:06:48;97280.94;;;-5.61;97.87
56668;BME280;42542;48.360;10.958;2022-12-18T02:10:00;97275.78;;;-5.63;98.11
56668;BME280;42542;48.360;10.958;2022-12-18T02:14:04;97281.78;;;-5.61;98.18
56668;BME280;42542;48.360;10.958;2022-12-18T02:23:47;97274.69;;;-5.54;98.12
56668;BME280;42542;48.360;10.958;2022-12-18T02:26:58;97272.94;;;-5.54;97.69
56668;BME280;42542;48.360;10.958;2022-12-18T02:30:04;97268.59;;;-5.55;97.75
56668;BME280;42542;48.360;10.958;2022-12-18T02:33:08;97270.28;;;-5.52;97.77
56668;BME280;42542;48.360;10.958;2022-12-18T02:36:14;97280.72;;;-5.52;97.61
56668;BME280;42542;48.360;10.958;2022-12-18T02:39:19;97282.44;;;-5.51;97.86
56668;BME280;42542;48.360;10.958;2022-12-18T02:42:40;97283.28;;;-5.51;97.85
56668;BME280;42542;48.360;10.958;2022-12-18T02:45:50;97287.59;;;-5.49;97.72
56668;BME280;42542;48.360;10.958;2022-12-18T02:49:01;97290.22;;;-5.49;97.78
56668;BME280;42542;48.360;10.958;2022-12-18T02:52:35;97287.59;;;-5.49;97.81
56668;BME280;42542;48.360;10.958;2022-12-18T02:59:00;97284.03;;;-5.47;97.94
56668;BME280;42542;48.360;10.958;2022-12-18T03:05:33;97279.59;;;-5.42;97.90
56668;BME280;42542;48.360;10.958;2022-12-18T03:08:41;97276.09;;;-5.41;97.93
56668;BME280;42542;48.360;10.958;2022-12-18T03:11:47;97277.88;;;-5.43;97.84
56668;BME280;42542;48.360;10.958;2022-12-18T03:18:36;97275.31;;;-5.44;97.58
56668;BME280;42542;48.360;10.958;2022-12-18T03:21:50;97282.16;;;-5.40;98.37
56668;BME280;42542;48.360;10.958;2022-12-18T03:24:53;97283.06;;;-5.41;98.02
56668;BME280;42542;48.360;10.958;2022-12-18T03:28:00;97288.19;;;-5.40;98.69
56668;BME280;42542;48.360;10.958;2022-12-18T03:31:05;97300.28;;;-5.36;98.47
56668;BME280;42542;48.360;10.958;2022-12-18T03:34:16;97308.06;;;-5.34;98.37
56668;BME280;42542;48.360;10.958;2022-12-18T03:37:20;97292.47;;;-5.36;98.27
56668;BME280;42542;48.360;10.958;2022-12-18T03:40:28;97290.88;;;-5.41;97.90
56668;BME280;42542;48.360;10.958;2022-12-18T03:50:41;97294.38;;;-5.42;98.14
56668;BME280;42542;48.360;10.958;2022-12-18T03:53:54;97309.13;;;-5.43;97.98
56668;BME280;42542;48.360;10.958;2022-12-18T03:57:32;97307.44;;;-5.44;98.03
56668;BME280;42542;48.360;10.958;2022-12-18T04:00:35;97304.00;;;-5.46;97.77
56668;BME280;42542;48.360;10.958;2022-12-18T04:03:42;97298.00;;;-5.48;97.86
56668;BME280;42542;48.360;10.958;2022-12-18T04:06:47;97260.88;;;-5.58;97.66
56668;BME280;42542;48.360;10.958;2022-12-18T04:09:54;97284.16;;;-5.52;97.77
56668;BME280;42542;48.360;10.958;2022-12-18T04:12:58;97302.41;;;-5.52;97.64
56668;BME280;42542;48.360;10.958;2022-12-18T04:16:01;97303.25;;;-5.51;97.79
56668;BME280;42542;48.360;10.958;2022-12-18T04:19:03;97291.13;;;-5.52;97.66
56668;BME280;42542;48.360;10.958;2022-12-18T04:22:12;97293.69;;;-5.51;97.92
56668;BME280;42542;48.360;10.958;2022-12-18T04:25:19;97293.63;;;-5.47;98.20
56668;BME280;42542;48.360;10.958;2022-12-18T04:28:30;97296.25;;;-5.47;98.26
56668;BME280;42542;48.360;10.958;2022-12-18T04:31:32;97304.84;;;-5.45;97.89
56668;BME280;42542;48.360;10.958;2022-12-18T04:34:34;97305.66;;;-5.42;97.73
56668;BME280;42542;48.360;10.958;2022-12-18T04:37:36;97303.91;;;-5.41;98.36
56668;BME280;42542;48.360;10.958;2022-12-18T04:40:39;97313.34;;;-5.37;98.37
56668;BME280;42542;48.360;10.958;2022-12-18T04:43:49;97317.63;;;-5.35;98.33
56668;BME280;42542;48.360;10.958;2022-12-18T04:46:50;97318.41;;;-5.33;97.62
56668;BME280;42542;48.360;10.958;2022-12-18T04:49:52;97314.13;;;-5.34;97.94
56668;BME280;42542;48.360;10.958;2022-12-18T04:52:54;97325.34;;;-5.32;97.85
56668;BME280;42542;48.360;10.958;2022-12-18T04:56:09;97328.78;;;-5.30;97.94
56668;BME280;42542;48.360;10.958;2022-12-18T04:59:11;97340.91;;;-5.29;97.51
56668;BME280;42542;48.360;10.958;2022-12-18T05:02:13;97334.81;;;-5.28;97.57
56668;BME280;42542;48.360;10.958;2022-12-18T05:05:15;97331.34;;;-5.28;97.67
56668;BME280;42542;48.360;10.958;2022-12-18T05:08:17;97336.59;;;-5.30;97.51
56668;BME280;42542;48.360;10.958;2022-12-18T05:11:20;97339.22;;;-5.31;97.17
56668;BME280;42542;48.360;10.958;2022-12-18T05:14:22;97332.28;;;-5.31;97.33
56668;BME280;42542;48.360;10.958;2022-12-18T05:17:24;97345.28;;;-5.31;97.26
56668;BME280;42542;48.360;10.958;2022-12-18T05:20:26;97326.38;;;-5.39;97.25
56668;BME280;42542;48.360;10.958;2022-12-18T05:23:29;97333.16;;;-5.32;97.01
56668;BME280;42542;48.360;10.958;2022-12-18T05:26:30;97328.00;;;-5.33;96.65
56668;BME280;42542;48.360;10.958;2022-12-18T05:29:32;97334.03;;;-5.33;96.76
56668;BME280;42542;48.360;10.958;2022-12-18T05:32:33;97335.00;;;-5.35;96.90
56668;BME280;42542;48.360;10.958;2022-12-18T05:35:35;97351.53;;;-5.36;96.93
56668;BME280;42542;48.360;10.958;2022-12-18T05:38:38;97348.22;;;-5.43;96.50
56668;BME280;42542;48.360;10.958;2022-12-18T05:41:40;97350.03;;;-5.46;96.49
56668;BME280;42542;48.360;10.958;2022-12-18T05:44:43;97344.88;;;-5.48;96.67
56668;BME280;42542;48.360;10.958;2022-12-18T05:47:44;97334.50;;;-5.49;96.81
56668;BME280;42542;48.360;10.958;2022-12-18T05:50:47;97337.13;;;-5.51;96.80
56668;BME280;42542;48.360;10.958;2022-12-18T05:53:49;97337.19;;;-5.54;97.12
56668;BME280;42542;48.360;10.958;2022-12-18T05:56:50;97335.38;;;-5.51;97.55
56668;BME280;42542;48.360;10.958;2022-12-18T05:59:52;97337.91;;;-5.47;97.60
56668;BME280;42542;48.360;10.958;2022-12-18T06:02:53;97343.06;;;-5.46;97.61
56668;BME280;42542;48.360;10.958;2022-12-18T06:05:55;97349.25;;;-5.50;97.76
56668;BME280;42542;48.360;10.958;2022-12-18T06:08:57;97350.03;;;-5.46;97.29
56668;BME280;42542;48.360;10.958;2022-12-18T06:11:59;97348.41;;;-5.51;97.09
56668;BME280;42542;48.360;10.958;2022-12-18T06:15:01;97361.41;;;-5.49;97.14
56668;BME280;42542;48.360;10.958;2022-12-18T06:18:03;97359.59;;;-5.47;97.12
56668;BME280;42542;48.360;10.958;2022-12-18T06:21:04;97371.72;;;-5.46;97.37
56668;BME280;42542;48.360;10.958;2022-12-18T06:24:06;97364.75;;;-5.45;97.19
56668;BME280;42542;48.360;10.958;2022-12-18T06:27:08;97363.91;;;-5.46;97.20
56668;BME280;42542;48.360;10.958;2022-12-18T06:30:10;97375.22;;;-5.47;97.01
56668;BME280;42542;48.360;10.958;2022-12-18T06:33:13;97378.81;;;-5.51;96.79
56668;BME280;42542;48.360;10.958;2022-12-18T06:36:14;97390.09;;;-5.51;96.99
56668;BME280;42542;48.360;10.958;2022-12-18T06:39:17;97384.88;;;-5.51;97.12
56668;BME280;42542;48.360;10.958;2022-12-18T06:42:18;97383.09;;;-5.48;97.35
56668;BME280;42542;48.360;10.958;2022-12-18T06:45:20;97385.63;;;-5.47;97.06
56668;BME280;42542;48.360;10.958;2022-12-18T06:48:22;97386.50;;;-5.46;97.36
56668;BME280;42542;48.360;10.958;2022-12-18T06:51:24;97387.19;;;-5.40;97.37
56668;BME280;42542;48.360;10.958;2022-12-18T06:54:26;97381.03;;;-5.36;97.57
56668;BME280;42542;48.360;10.958;2022-12-18T06:57:27;97378.34;;;-5.33;97.48
56668;BME280;42542;48.360;10.958;2022-12-18T07:00:29;97372.53;;;-5.42;96.78
56668;BME280;42542;48.360;10.958;2022-12-18T07:03:31;97393.22;;;-5.36;96.83
56668;BME280;42542;48.360;10.958;2022-12-18T07:06:33;97393.19;;;-5.35;97.07
56668;BME280;42542;48.360;10.958;2022-12-18T07:09:34;97402.78;;;-5.37;97.01
56668;BME280;42542;48.360;10.958;2022-12-18T07:12:36;97398.56;;;-5.42;96.70
56668;BME280;42542;48.360;10.958;2022-12-18T07:15:38;97400.34;;;-5.44;96.90
56668;BME280;42542;48.360;10.958;2022-12-18T07:18:39;97405.59;;;-5.46;97.07
56668;BME280;42542;48.360;10.958;2022-12-18T07:21:41;97406.56;;;-5.50;97.11
56668;BME280;42542;48.360;10.958;2022-12-18T07:24:43;97404.81;;;-5.49;97.03
56668;BME280;42542;48.360;10.958;2022-12-18T07:27:44;97402.22;;;-5.49;97.49
56668;BME280;42542;48.360;10.958;2022-12-18T07:30:46;97410.91;;;-5.51;96.92
56668;BME280;42542;48.360;10.958;2022-12-18T07:33:48;97411.78;;;-5.50;97.33
56668;BME280;42542;48.360;10.958;2022-12-18T07:36:50;97413.38;;;-5.44;97.58
56668;BME280;42542;48.360;10.958;2022-12-18T07:39:51;97414.34;;;-5.48;97.80
56668;BME280;42542;48.360;10.958;2022-12-18T07:42:53;97422.03;;;-5.42;97.49
56668;BME280;42542;48.360;10.958;2022-12-18T07:45:55;97429.81;;;-5.41;97.10
56668;BME280;42542;48.360;10.958;2022-12-18T07:48:56;97441.09;;;-5.40;97.03
56668;BME280;42542;48.360;10.958;2022-12-18T07:51:58;97433.28;;;-5.40;97.45
56668;BME280;42542;48.360;10.958;2022-12-18T07:55:00;97428.09;;;-5.42;97.25
56668;BME280;42542;48.360;10.958;2022-12-18T07:58:04;97433.16;;;-5.36;97.60
56668;BME280;42542;48.360;10.958;2022-12-18T08:01:15;97434.84;;;-5.33;97.34
56668;BME280;42542;48.360;10.958;2022-12-18T08:04:17;97439.19;;;-5.34;97.49
56668;BME280;42542;48.360;10.958;2022-12-18T08:07:19;97440.84;;;-5.31;97.22
56668;BME280;42542;48.360;10.958;2022-12-18T08:10:21;97434.06;;;-5.38;96.94
56668;BME280;42542;48.360;10.958;2022-12-18T08:13:23;97436.63;;;-5.35;97.53
56668;BME280;42542;48.360;10.958;2022-12-18T08:16:32;97434.06;;;-5.38;96.83
56668;BME280;42542;48.360;10.958;2022-12-18T08:19:36;97447.00;;;-5.34;96.95
56668;BME280;42542;48.360;10.958;2022-12-18T08:22:38;97449.56;;;-5.32;96.96
56668;BME280;42542;48.360;10.958;2022-12-18T08:25:40;97455.44;;;-5.24;96.93
56668;BME280;42542;48.360;10.958;2022-12-18T08:28:42;97450.38;;;-5.30;96.95
56668;BME280;42542;48.360;10.958;2022-12-18T08:31:51;97442.59;;;-5.32;96.82
56668;BME280;42542;48.360;10.958;2022-12-18T08:34:56;97447.59;;;-5.23;96.99
56668;BME280;42542;48.360;10.958;2022-12-18T08:38:09;97445.81;;;-5.21;96.69
56668;BME280;42542;48.360;10.958;2022-12-18T08:41:15;97439.84;;;-5.26;96.71
56668;BME280;42542;48.360;10.958;2022-12-18T08:44:25;97445.78;;;-5.19;96.67
56668;BME280;42542;48.360;10.958;2022-12-18T08:47:45;97448.25;;;-5.13;96.75
56668;BME280;42542;48.360;10.958;2022-12-18T08:50:58;97441.19;;;-5.09;96.77
56668;BME280;42542;48.360;10.958;2022-12-18T08:54:04;97436.97;;;-5.14;96.61
56668;BME280;42542;48.360;10.958;2022-12-18T08:57:10;97428.31;;;-5.16;96.37
56668;BME280;42542;48.360;10.958;2022-12-18T09:00:12;97411.13;;;-5.23;96.47
56668;BME280;42542;48.360;10.958;2022-12-18T09:03:19;97436.81;;;-5.07;97.12
56668;BME280;42542;48.360;10.958;2022-12-18T09:06:25;97442.84;;;-5.05;96.81
56668;BME280;42542;48.360;10.958;2022-12-18T09:09:32;97449.81;;;-5.06;96.49
56668;BME280;42542;48.360;10.958;2022-12-18T09:12:34;97442.16;;;-5.12;96.51
56668;BME280;42542;48.360;10.958;2022-12-18T09:15:47;97440.44;;;-5.13;96.07
56668;BME280;42542;48.360;10.958;2022-12-18T09:18:49;97453.34;;;-5.08;96.29
56668;BME280;42542;48.360;10.958;2022-12-18T09:21:50;97432.78;;;-5.21;96.32
56668;BME280;42542;48.360;10.958;2022-12-18T09:24:52;97435.22;;;-5.13;96.71
56668;BME280;42542;48.360;10.958;2022-12-18T09:27:54;97454.91;;;-5.01;96.52
56668;BME280;42542;48.360;10.958;2022-12-18T09:31:04;97433.28;;;-5.05;96.62
56668;BME280;42542;48.360;10.958;2022-12-18T09:34:10;97419.56;;;-5.13;96.96
56668;BME280;42542;48.360;10.958;2022-12-18T09:37:16;97427.91;;;-4.99;96.70
56668;BME280;42542;48.360;10.958;2022-12-18T09:40:22;97440.66;;;-4.88;96.89
56668;BME280;42542;48.360;10.958;2022-12-18T09:47:18;97438.75;;;-4.82;97.12
56668;BME280;42542;48.360;10.958;2022-12-18T09:50:30;97416.44;;;-4.92;96.72
56668;BME280;42542;48.360;10.958;2022-12-18T09:53:36;97402.59;;;-4.95;97.17
56668;BME280;42542;48.360;10.958;2022-12-18T09:56:42;97427.38;;;-4.79;96.96
56668;BME280;42542;48.360;10.958;2022-12-18T09:59:50;97417.00;;;-4.81;96.85
56668;BME280;42542;48.360;10.958;2022-12-18T10:03:09;97408.31;;;-4.81;97.17
56668;BME280;42542;48.360;10.958;2022-12-18T10:09:51;97423.50;;;-4.63;96.41
56668;BME280;42542;48.360;10.958;2022-12-18T10:13:11;97406.88;;;-4.60;96.81
56668;BME280;42542;48.360;10.958;2022-12-18T10:26:27;97411.00;;;-4.52;95.95
56668;BME280;42542;48.360;10.958;2022-12-18T10:29:29;97406.00;;;-4.59;95.33
56668;BME280;42542;48.360;10.958;2022-12-18T10:32:30;97417.13;;;-4.53;95.19
56668;BME280;42542;48.360;10.958;2022-12-18T10:35:32;97401.72;;;-4.62;95.25
56668;BME280;42542;48.360;10.958;2022-12-18T10:38:34;97412.84;;;-4.55;95.30
56668;BME280;42542;48.360;10.958;2022-12-18T10:41:36;97426.78;;;-4.56;95.05
56668;BME280;42542;48.360;10.958;2022-12-18T10:44:38;97434.59;;;-4.55;94.95
56668;BME280;42542;48.360;10.958;2022-12-18T10:47:49;97444.06;;;-4.52;95.38
56668;BME280;42542;48.360;10.958;2022-12-18T10:50:51;97427.63;;;-4.54;95.68
56668;BME280;42542;48.360;10.958;2022-12-18T10:54:22;97434.25;;;-4.43;95.37
56668;BME280;42542;48.360;10.958;2022-12-18T10:57:36;97430.72;;;-4.40;95.38
56668;BME280;42542;48.360;10.958;2022-12-18T11:00:38;97440.22;;;-4.39;95.02
56668;BME280;42542;48.360;10.958;2022-12-18T11:03:45;97433.22;;;-4.37;95.14
56668;BME280;42542;48.360;10.958;2022-12-18T11:10:01;97429.56;;;-4.32;94.99
56668;BME280;42542;48.360;10.958;2022-12-18T11:13:21;97422.53;;;-4.28;94.93
56668;BME280;42542;48.360;10.958;2022-12-18T11:16:23;97421.63;;;-4.27;95.13
56668;BME280;42542;48.360;10.958;2022-12-18T11:19:33;97420.69;;;-4.24;95.13
56668;BME280;42542;48.360;10.958;2022-12-18T11:22:36;97423.06;;;-4.17;95.38
56668;BME280;42542;48.360;10.958;2022-12-18T11:25:39;97423.00;;;-4.14;95.09
56668;BME280;42542;48.360;10.958;2022-12-18T11:29:09;97409.06;;;-4.13;94.71
56668;BME280;42542;48.360;10.958;2022-12-18T11:32:27;97406.47;;;-4.14;94.30
56668;BME280;42542;48.360;10.958;2022-12-18T11:38:53;97400.44;;;-4.16;94.41
56668;BME280;42542;48.360;10.958;2022-12-18T11:42:25;97408.34;;;-4.18;94.21
56668;BME280;42542;48.360;10.958;2022-12-18T11:45:30;97408.34;;;-4.18;94.23
56668;BME280;42542;48.360;10.958;2022-12-18T11:48:48;97408.34;;;-4.18;93.79
56668;BME280;42542;48.360;10.958;2022-12-18T11:52:10;97398.69;;;-4.16;94.03
56668;BME280;42542;48.360;10.958;2022-12-18T11:55:26;97395.22;;;-4.16;93.91
56668;BME280;42542;48.360;10.958;2022-12-18T11:58:53;97397.88;;;-4.18;94.31
56668;BME280;42542;48.360;10.958;2022-12-18T12:02:13;97391.75;;;-4.17;94.47
56668;BME280;42542;48.360;10.958;2022-12-18T12:06:12;97387.34;;;-4.15;94.01
56668;BME280;42542;48.360;10.958;2022-12-18T12:16:15;97385.66;;;-4.17;94.02
56668;BME280;42542;48.360;10.958;2022-12-18T12:23:45;97395.00;;;-4.09;94.42
56668;BME280;42542;48.360;10.958;2022-12-18T12:26:33;97400.25;;;-4.10;93.99
56668;BME280;42542;48.360;10.958;2022-12-18T12:39:18;97382.75;;;-4.07;93.76
56668;BME280;42542;48.360;10.958;2022-12-18T12:42:39;97382.84;;;-4.10;92.97
56668;BME280;42542;48.360;10.958;2022-12-18T12:46:08;97376.72;;;-4.09;93.45
56668;BME280;42542;48.360;10.958;2022-12-18T12:49:15;97371.69;;;-4.15;93.17
56668;BME280;42542;48.360;10.958;2022-12-18T12:52:31;97366.47;;;-4.15;93.38
56668;BME280;42542;48.360;10.958;2022-12-18T12:55:35;97364.78;;;-4.17;93.20
56668;BME280;42542;48.360;10.958;2022-12-18T13:08:59;97365.56;;;-4.14;93.20
56668;BME280;42542;48.360;10.958;2022-12-18T13:12:10;97362.25;;;-4.19;93.20
56668;BME280;42542;48.360;10.958;2022-12-18T13:15:50;97363.19;;;-4.21;93.45
56668;BME280;42542;48.360;10.958;2022-12-18T13:19:01;97368.44;;;-4.23;93.21
56668;BME280;42542;48.360;10.958;2022-12-18T13:22:03;97369.31;;;-4.24;93.30
56668;BME280;42542;48.360;10.958;2022-12-18T13:25:28;97370.19;;;-4.23;93.29
56668;BME280;42542;48.360;10.958;2022-12-18T13:34:43;97371.03;;;-4.23;93.69
56668;BME280;42542;48.360;10.958;2022-12-18T13:37:51;97373.69;;;-4.24;93.38
56668;BME280;42542;48.360;10.958;2022-12-18T13:40:55;97369.47;;;-4.28;93.31
56668;BME280;42542;48.360;10.958;2022-12-18T13:47:33;97372.13;;;-4.30;93.55
56668;BME280;42542;48.360;10.958;2022-12-18T13:50:36;97375.63;;;-4.31;93.71
56668;BME280;42542;48.360;10.958;2022-12-18T13:53:39;97386.06;;;-4.31;93.56
56668;BME280;42542;48.360;10.958;2022-12-18T13:56:45;97373.91;;;-4.32;94.17
56668;BME280;42542;48.360;10.958;2022-12-18T13:59:48;97378.19;;;-4.29;93.76
56668;BME280;42542;48.360;10.958;2022-12-18T14:02:51;97367.78;;;-4.31;93.84
56668;BME280;42542;48.360;10.958;2022-12-18T14:06:00;97357.53;;;-4.37;93.85
56668;BME280;42542;48.360;10.958;2022-12-18T14:09:03;97360.94;;;-4.34;93.69
56668;BME280;42542;48.360;10.958;2022-12-18T14:12:05;97370.50;;;-4.34;93.93
56668;BME280;42542;48.360;10.958;2022-12-18T14:15:31;97372.22;;;-4.33;93.67
56668;BME280;42542;48.360;10.958;2022-12-18T14:21:40;97374.97;;;-4.39;93.61
56668;BME280;42542;48.360;10.958;2022-12-18T14:24:42;97380.16;;;-4.38;93.47
56668;BME280;42542;48.360;10.958;2022-12-18T14:28:27;97376.81;;;-4.41;93.07
56668;BME280;42542;48.360;10.958;2022-12-18T14:31:19;97375.13;;;-4.44;93.50
56668;BME280;42542;48.360;10.958;2022-12-18T14:34:26;97365.72;;;-4.49;92.95
56668;BME280;42542;48.360;10.958;2022-12-18T14:37:28;97379.69;;;-4.52;93.40
56668;BME280;42542;48.360;10.958;2022-12-18T14:40:29;97383.38;;;-4.59;92.71
56668;BME280;42542;48.360;10.958;2022-12-18T14:43:33;97374.84;;;-4.65;92.43
56668;BME280;42542;48.360;10.958;2022-12-18T14:46:37;97383.63;;;-4.68;92.82
56668;BME280;42542;48.360;10.958;2022-12-18T14:49:41;97388.94;;;-4.71;92.56
56668;BME280;42542;48.360;10.958;2022-12-18T14:52:43;97380.41;;;-4.78;92.61
56668;BME280;42542;48.360;10.958;2022-12-18T14:55:47;97390.06;;;-4.81;92.77
56668;BME280;42542;48.360;10.958;2022-12-18T14:58:53;97377.31;;;-4.92;92.95
56668;BME280;42542;48.360;10.958;2022-12-18T15:01:59;97395.41;;;-4.86;93.07
56668;BME280;42542;48.360;10.958;2022-12-18T15:05:17;97402.44;;;-4.89;93.05
56668;BME280;42542;48.360;10.958;2022-12-18T15:08:34;97393.00;;;-4.93;92.73
56668;BME280;42542;48.360;10.958;2022-12-18T15:14:41;97376.66;;;-5.00;93.59
56668;BME280;42542;48.360;10.958;2022-12-18T15:17:43;97373.38;;;-5.08;93.78
56668;BME280;42542;48.360;10.958;2022-12-18T15:20:51;97378.53;;;-5.05;93.82
56668;BME280;42542;48.360;10.958;2022-12-18T15:23:54;97379.41;;;-5.04;94.14
56668;BME280;42542;48.360;10.958;2022-12-18T15:26:57;97374.03;;;-5.00;94.18
56668;BME280;42542;48.360;10.958;2022-12-18T15:30:20;97375.75;;;-4.99;94.30
56668;BME280;42542;48.360;10.958;2022-12-18T15:33:29;97370.66;;;-5.03;94.16
56668;BME280;42542;48.360;10.958;2022-12-18T15:36:31;97375.94;;;-5.05;94.13
56668;BME280;42542;48.360;10.958;2022-12-18T15:39:37;97375.13;;;-5.08;94.46
56668;BME280;42542;48.360;10.958;2022-12-18T15:42:39;97365.53;;;-5.06;94.80
56668;BME280;42542;48.360;10.958;2022-12-18T15:46:04;97355.19;;;-5.11;94.56
56668;BME280;42542;48.360;10.958;2022-12-18T15:49:07;97358.63;;;-5.09;94.68
56668;BME280;42542;48.360;10.958;2022-12-18T15:52:12;97371.69;;;-5.11;94.73
56668;BME280;42542;48.360;10.958;2022-12-18T15:55:18;97372.66;;;-5.13;94.83
56668;BME280;42542;48.360;10.958;2022-12-18T15:58:39;97364.84;;;-5.13;94.70
56668;BME280;42542;48.360;10.958;2022-12-18T16:01:42;97365.69;;;-5.13;94.83
56668;BME280;42542;48.360;10.958;2022-12-18T16:04:45;97367.44;;;-5.13;95.00
56668;BME280;42542;48.360;10.958;2022-12-18T16:07:49;97371.84;;;-5.15;95.55
56668;BME280;42542;48.360;10.958;2022-12-18T16:10:50;97367.53;;;-5.18;95.28
56668;BME280;42542;48.360;10.958;2022-12-18T16:13:52;97377.91;;;-5.15;95.46
56668;BME280;42542;48.360;10.958;2022-12-18T16:16:59;97383.19;;;-5.18;95.18
56668;BME280;42542;48.360;10.958;2022-12-18T16:20:01;97381.50;;;-5.19;95.43
56668;BME280;42542;48.360;10.958;2022-12-18T16:23:03;97380.56;;;-5.18;95.43
56668;BME280;42542;48.360;10.958;2022-12-18T16:26:05;97378.75;;;-5.14;95.59
56668;BME280;42542;48.360;10.958;2022-12-18T16:29:07;97369.22;;;-5.15;95.72
56668;BME280;42542;48.360;10.958;2022-12-18T16:32:14;97370.97;;;-5.16;95.44
56668;BME280;42542;48.360;10.958;2022-12-18T16:35:16;97379.63;;;-5.14;95.36
56668;BME280;42542;48.360;10.958;2022-12-18T16:38:18;97376.19;;;-5.16;95.51
56668;BME280;42542;48.360;10.958;2022-12-18T16:41:19;97366.66;;;-5.17;95.64
56668;BME280;42542;48.360;10.958;2022-12-18T16:44:33;97362.28;;;-5.16;95.64
56668;BME280;42542;48.360;10.958;2022-12-18T16:47:36;97371.88;;;-5.17;95.42
56668;BME280;42542;48.360;10.958;2022-12-18T16:50:38;97365.03;;;-5.21;95.65
56668;BME280;42542;48.360;10.958;2022-12-18T16:53:40;97368.34;;;-5.14;95.51
56668;BME280;42542;48.360;10.958;2022-12-18T16:56:42;97371.84;;;-5.15;95.85
56668;BME280;42542;48.360;10.958;2022-12-18T16:59:45;97361.41;;;-5.15;95.85
56668;BME280;42542;48.360;10.958;2022-12-18T17:02:47;97367.50;;;-5.16;95.76
56668;BME280;42542;48.360;10.958;2022-12-18T17:05:48;97363.97;;;-5.14;95.94
56668;BME280;42542;48.360;10.958;2022-12-18T17:08:58;97376.19;;;-5.16;95.83
56668;BME280;42542;48.360;10.958;2022-12-18T17:11:59;97367.44;;;-5.13;95.44
56668;BME280;42542;48.360;10.958;2022-12-18T17:15:05;97351.97;;;-5.19;95.95
56668;BME280;42542;48.360;10.958;2022-12-18T17:18:06;97366.56;;;-5.12;95.92
56668;BME280;42542;48.360;10.958;2022-12-18T17:21:09;97355.16;;;-5.09;96.39
56668;BME280;42542;48.360;10.958;2022-12-18T17:24:11;97352.56;;;-5.09;95.68
56668;BME280;42542;48.360;10.958;2022-12-18T17:27:13;97341.28;;;-5.10;95.88
56668;BME280;42542;48.360;10.958;2022-12-18T17:30:15;97345.69;;;-5.12;95.62
56668;BME280;42542;48.360;10.958;2022-12-18T17:33:17;97344.03;;;-5.15;95.37
56668;BME280;42542;48.360;10.958;2022-12-18T17:36:19;97350.25;;;-5.20;95.43
56668;BME280;42542;48.360;10.958;2022-12-18T17:39:21;97342.44;;;-5.20;96.07
56668;BME280;42542;48.360;10.958;2022-12-18T17:42:24;97338.06;;;-5.20;96.03
56668;BME280;42542;48.360;10.958;2022-12-18T17:45:26;97334.66;;;-5.22;95.77
56668;BME280;42542;48.360;10.958;2022-12-18T17:48:28;97337.31;;;-5.25;95.84